Time;durP1;ratioP1;P1;durP2;ratioP2;P2;SDS_P1;SDS_P2;PMS_P1;PMS_P2;Temp;Humidity;BMP_temperature;BMP_pressure;BME280_temperature;BME280_humidity;BME280_pressure;Samples;Min_cycle;Max_cycle;Signal;HPM_P1;HPM_P2
2023/10/06 00:06:12;;;;;;;4.60;2.20;;;;;;;13.03;63.56;99106.29;102590;1291;601004;-22
2023/10/06 00:08:40;;;;;;;;;;;;;;;13.04;62.88;99105.52;104871;1266;61184;-22
2023/10/06 00:11:12;;;;;;;5.50;2.40;;;;;;;12.83;63.24;99107.18;104828;1267;61228;-22
2023/10/06 00:21:21;;;;;;;5.50;2.80;;;;;;;11.90;66.68;99111.81;102727;1290;601380;-22
2023/10/06 00:23:49;;;;;;;5.90;2.90;;;;;;;11.75;67.22;99117.48;104842;1270;61187;-22
2023/10/06 00:34:05;;;;;;;5.20;2.30;;;;;;;11.32;69.50;99113.56;102606;1293;600162;-22
2023/10/06 00:36:34;;;;;;;7.30;2.40;;;;;;;11.64;68.71;99117.82;104873;1271;61150;-22
2023/10/06 00:39:12;;;;;;;11.20;3.00;;;;;;;12.02;67.21;99119.88;104829;1271;61249;-22
2023/10/06 00:41:43;;;;;;;8.20;3.00;;;;;;;12.08;66.72;99127.52;104872;1270;70909;-22
2023/10/06 00:44:12;;;;;;;9.60;3.10;;;;;;;11.96;67.22;99127.70;104857;1264;73093;-21
2023/10/06 00:46:42;;;;;;;4.50;2.80;;;;;;;11.75;67.97;99127.84;102634;1270;3024188;-26
2023/10/06 00:49:10;;;;;;;5.90;2.70;;;;;;;11.55;68.77;99124.34;104784;1264;61161;-22
2023/10/06 00:59:23;;;;;;;6.70;3.10;;;;;;;10.96;71.60;99130.25;102766;1294;600078;-22
2023/10/06 01:01:52;;;;;;;7.30;3.00;;;;;;;11.38;70.42;99126.11;105093;1269;61180;-22
2023/10/06 01:04:24;;;;;;;8.40;2.80;;;;;;;11.59;69.52;99124.35;105077;1266;61753;-22
2023/10/06 01:06:55;;;;;;;4.10;2.50;;;;;;;11.56;69.26;99127.04;104846;1272;74289;-21
2023/10/06 01:09:30;;;;;;;6.10;2.70;;;;;;;11.36;70.14;99127.81;104803;1267;74276;-22
2023/10/06 01:11:58;;;;;;;6.40;3.00;;;;;;;11.20;70.67;99131.57;102491;1272;3146419;-22
2023/10/06 01:14:33;;;;;;;6.80;2.70;;;;;;;11.00;71.17;99131.41;104843;1267;61112;-23
2023/10/06 01:19:47;;;;;;;4.20;2.30;;;;;;;10.61;73.19;99130.25;104900;1269;70724;-24
2023/10/06 01:22:28;;;;;;;3.80;2.00;;;;;;;11.02;72.02;99132.13;104874;1270;74522;-24
2023/10/06 01:24:58;;;;;;;5.20;2.40;;;;;;;11.29;70.73;99138.63;104970;1264;72630;-24
2023/10/06 01:27:26;;;;;;;6.50;2.60;;;;;;;11.22;70.63;99143.44;105145;1268;61138;-23
2023/10/06 01:32:43;;;;;;;5.50;2.70;;;;;;;10.73;72.08;99147.00;104854;1264;73100;-23
2023/10/06 01:35:12;;;;;;;4.90;2.60;;;;;;;10.49;72.86;99150.47;105186;1269;73227;-23
2023/10/06 01:37:42;;;;;;;6.10;2.40;;;;;;;10.23;74.29;99159.38;104885;1265;72686;-23
2023/10/06 01:42:51;;;;;;;6.80;2.60;;;;;;;10.43;74.71;99161.68;104865;1270;61161;-23
2023/10/06 01:45:21;;;;;;;4.90;2.90;;;;;;;10.78;72.92;99165.05;104897;1264;72997;-23
2023/10/06 01:47:56;;;;;;;9.20;3.00;;;;;;;10.78;73.07;99168.29;104982;1264;73304;-23
2023/10/06 01:50:27;;;;;;;9.40;3.00;;;;;;;10.71;73.55;99163.49;104946;1269;72648;-23
2023/10/06 02:00:39;;;;;;;5.40;2.90;;;;;;;10.87;74.53;99169.48;102716;1290;600485;-22
2023/10/06 02:03:10;;;;;;;8.30;2.50;;;;;;;11.30;72.77;99167.58;104835;1264;61155;-22
2023/10/06 02:05:38;;;;;;;7.20;3.20;;;;;;;11.44;71.89;99173.02;104899;1270;61299;-21
2023/10/06 02:08:09;;;;;;;5.20;2.50;;;;;;;11.35;72.04;99175.52;104856;1267;72245;-24
2023/10/06 02:10:37;;;;;;;5.80;2.40;;;;;;;11.16;72.74;99174.31;104814;1267;74286;-24
2023/10/06 02:13:06;;;;;;;5.10;2.90;;;;;;;11.03;73.32;99171.84;103651;1268;3079453;-25
2023/10/06 02:15:34;;;;;;;8.20;3.00;;;;;;;10.93;73.85;99183.14;105055;1264;61113;-24
2023/10/06 02:18:07;;;;;;;6.50;2.20;;;;;;;11.10;73.80;99189.05;105131;1269;61288;-24
2023/10/06 02:20:35;;;;;;;5.10;2.80;;;;;;;11.49;72.06;99188.95;104778;1264;71040;-24
2023/10/06 02:23:03;;;;;;;7.20;3.00;;;;;;;11.59;71.28;99184.45;104917;1268;72814;-24
2023/10/06 02:25:31;;;;;;;8.30;2.80;;;;;;;11.45;72.03;99181.65;104811;1264;71441;-23
2023/10/06 02:28:05;;;;;;;4.20;2.30;;;;;;;11.31;72.79;99189.92;104906;1269;61751;-23
2023/10/06 02:30:44;;;;;;;5.30;2.80;;;;;;;11.25;72.90;99188.89;104888;1264;61116;-23
2023/10/06 02:33:12;;;;;;;5.60;2.90;;;;;;;11.16;73.46;99191.30;105318;1257;73043;-24
2023/10/06 02:35:46;;;;;;;5.90;2.50;;;;;;;11.06;74.08;99194.19;105572;1258;74302;-23
2023/10/06 02:38:15;;;;;;;5.40;2.70;;;;;;;11.41;73.03;99190.48;105573;1263;72648;-24
2023/10/06 02:40:47;;;;;;;7.10;2.20;;;;;;;11.71;71.56;99194.98;105521;1257;61142;-23
2023/10/06 02:49:35;;;;;;;6.20;2.50;;;;;;;11.26;73.28;99193.41;102639;1296;600195;-23
2023/10/06 02:59:25;;;;;;;6.80;2.70;;;;;;;11.47;72.96;99201.80;102630;1293;600266;-22
2023/10/06 03:13:46;;;;;;;6.60;2.40;;;;;;;10.56;76.55;99213.09;102691;1294;600943;-22
2023/10/06 03:24:05;;;;;;;7.70;2.90;;;;;;;11.22;74.07;99217.45;102642;1293;600188;-22
2023/10/06 03:26:43;;;;;;;5.50;3.20;;;;;;;10.99;74.81;99218.70;104853;1270;61253;-22
2023/10/06 03:29:25;;;;;;;6.70;2.70;;;;;;;10.81;75.74;99222.21;104862;1267;61692;-22
2023/10/06 03:38:44;;;;;;;5.60;2.30;;;;;;;11.41;73.80;99224.25;102455;1295;616489;-22
2023/10/06 03:41:18;;;;;;;4.00;2.40;;;;;;;11.25;73.85;99223.98;104905;1266;61093;-22
2023/10/06 03:43:55;;;;;;;5.20;2.60;;;;;;;11.07;74.66;99225.19;104882;1273;61238;-22
2023/10/06 03:46:24;;;;;;;6.80;3.10;;;;;;;10.84;75.50;99224.63;104867;1270;71899;-22
2023/10/06 03:48:52;;;;;;;5.30;2.50;;;;;;;10.67;75.92;99227.50;105484;1261;74718;-22
2023/10/06 03:51:19;;;;;;;4.70;2.50;;;;;;;10.59;76.76;99225.16;103363;1257;2994407;-22
2023/10/06 03:53:48;;;;;;;5.10;2.60;;;;;;;10.97;75.50;99221.48;105423;1258;61719;-22
2023/10/06 03:56:18;;;;;;;5.50;2.50;;;;;;;11.18;74.46;99224.33;105369;1257;61237;-23
2023/10/06 03:58:46;;;;;;;4.90;2.30;;;;;;;11.20;74.18;99227.30;105256;1257;72313;-22
2023/10/06 04:01:19;;;;;;;5.00;2.40;;;;;;;11.01;74.50;99229.23;105372;1257;74180;-22
2023/10/06 04:03:47;;;;;;;8.20;2.90;;;;;;;10.86;74.89;99229.16;105239;1258;72619;-22
2023/10/06 04:06:15;;;;;;;6.40;2.40;;;;;;;10.62;75.76;99232.76;105307;1257;61066;-22
2023/10/06 04:08:44;;;;;;;4.50;2.00;;;;;;;10.45;76.41;99232.55;105522;1264;61145;-22
2023/10/06 04:11:15;;;;;;;7.00;2.30;;;;;;;10.75;75.86;99237.81;105413;1258;72822;-22
2023/10/06 04:13:42;;;;;;;4.90;2.10;;;;;;;11.05;74.78;99234.06;105342;1257;74888;-22
2023/10/06 04:16:13;;;;;;;7.50;2.80;;;;;;;11.09;74.35;99239.29;105500;1261;72647;-22
2023/10/06 04:18:41;;;;;;;8.80;2.70;;;;;;;10.87;74.98;99236.37;105171;1258;61145;-22
2023/10/06 04:21:17;;;;;;;6.30;2.70;;;;;;;10.74;75.48;99245.16;105230;1262;61209;-22
2023/10/06 04:23:44;;;;;;;7.00;2.30;;;;;;;10.52;76.52;99245.73;105273;1258;73211;-22
2023/10/06 04:26:14;;;;;;;7.30;2.20;;;;;;;10.35;77.26;99250.64;105455;1261;74928;-22
2023/10/06 04:28:42;;;;;;;6.50;2.20;;;;;;;10.57;76.86;99248.40;105133;1264;71836;-22
2023/10/06 04:31:09;;;;;;;6.50;2.50;;;;;;;10.84;75.47;99259.02;105222;1262;61228;-22
2023/10/06 04:33:38;;;;;;;5.80;2.70;;;;;;;10.85;75.06;99259.65;105367;1257;61222;-22
2023/10/06 04:36:08;;;;;;;5.10;2.90;;;;;;;10.70;75.68;99263.60;105503;1259;73278;-22
2023/10/06 04:38:39;;;;;;;8.70;2.70;;;;;;;10.54;76.58;99267.23;105290;1263;73338;-22
2023/10/06 04:41:08;;;;;;;5.00;2.60;;;;;;;10.33;77.56;99274.34;105517;1257;72636;-22
2023/10/06 04:43:35;;;;;;;4.90;2.10;;;;;;;10.24;78.28;99279.93;105516;1261;61166;-23
2023/10/06 04:46:06;;;;;;;7.10;2.60;;;;;;;10.65;77.13;99278.58;105435;1259;61106;-23
2023/10/06 04:48:35;;;;;;;6.60;2.70;;;;;;;10.93;75.67;99282.44;105270;1264;72454;-22
2023/10/06 04:51:06;;;;;;;6.80;2.70;;;;;;;11.00;75.43;99286.27;105518;1257;74336;-23
2023/10/06 04:53:35;;;;;;;7.00;2.80;;;;;;;10.79;76.19;99288.58;105185;1257;71157;-24
2023/10/06 04:56:03;;;;;;;7.50;2.90;;;;;;;10.61;77.10;99298.33;105504;1257;61055;-23
2023/10/06 04:58:31;;;;;;;4.60;2.90;;;;;;;10.50;77.86;99296.20;105184;1258;61127;-23
2023/10/06 05:01:01;;;;;;;5.30;2.30;;;;;;;10.37;78.33;99296.65;105124;1257;72855;-23
2023/10/06 05:03:40;;;;;;;10.10;2.30;;;;;;;10.72;77.77;99295.00;105459;1258;74202;-23
2023/10/06 05:06:15;;;;;;;6.50;2.50;;;;;;;11.00;76.08;99299.95;105464;1257;72739;-24
2023/10/06 05:08:46;;;;;;;3.30;1.90;;;;;;;10.83;76.36;99298.19;105632;1253;61089;-23
2023/10/06 05:11:17;;;;;;;5.70;2.70;;;;;;;10.59;77.70;99308.89;105510;1257;61192;-24
2023/10/06 05:13:52;;;;;;;4.40;2.20;;;;;;;10.42;78.70;99311.38;105658;1254;73050;-23
2023/10/06 05:16:19;;;;;;;5.10;2.50;;;;;;;10.25;78.97;99313.09;105624;1258;75735;-23
2023/10/06 05:18:47;;;;;;;5.30;3.00;;;;;;;10.24;79.57;99315.17;105691;1255;72644;-23
2023/10/06 05:21:15;;;;;;;5.50;2.10;;;;;;;10.61;78.13;99310.76;105671;1261;61110;-24
2023/10/06 05:23:45;;;;;;;8.50;2.80;;;;;;;10.89;76.91;99311.63;105730;1256;61127;-23
2023/10/06 05:26:13;;;;;;;8.10;2.80;;;;;;;10.88;76.37;99318.45;105694;1254;72910;-24
2023/10/06 05:28:42;;;;;;;6.30;2.50;;;;;;;10.59;77.63;99320.51;105721;1253;74374;-23
2023/10/06 05:31:09;;;;;;;5.80;2.50;;;;;;;10.42;78.58;99321.96;105670;1257;72630;-23
2023/10/06 05:33:36;;;;;;;4.00;2.20;;;;;;;10.32;79.34;99330.17;105604;1254;61248;-23
2023/10/06 05:36:11;;;;;;;6.60;2.60;;;;;;;10.55;79.26;99327.59;105620;1258;61128;-24
2023/10/06 05:38:38;;;;;;;7.90;2.20;;;;;;;10.88;77.21;99327.65;105699;1253;72071;-24
2023/10/06 05:41:11;;;;;;;4.00;2.10;;;;;;;10.94;76.47;99329.79;105676;1254;74260;-21
2023/10/06 05:43:39;;;;;;;4.90;2.30;;;;;;;10.89;76.17;99339.73;105653;1254;72597;-24
2023/10/06 05:46:06;;;;;;;4.10;2.10;;;;;;;10.75;76.71;99338.21;105698;1253;61064;-24
2023/10/06 05:48:34;;;;;;;4.80;2.10;;;;;;;10.58;77.08;99335.14;105685;1258;61056;-24
2023/10/06 05:51:09;;;;;;;4.40;1.80;;;;;;;10.44;77.33;99337.29;105678;1254;72056;-23
2023/10/06 05:53:43;;;;;;;4.50;2.20;;;;;;;10.78;76.44;99339.55;105480;1253;74447;-24
2023/10/06 05:56:10;;;;;;;3.40;2.00;;;;;;;10.95;75.20;99350.92;105624;1253;70696;-24
2023/10/06 05:58:38;;;;;;;6.20;2.80;;;;;;;10.80;75.47;99347.92;105505;1253;61086;-24
2023/10/06 06:01:06;;;;;;;8.30;2.20;;;;;;;10.67;75.89;99355.65;105665;1254;61062;-23
2023/10/06 06:03:33;;;;;;;4.10;2.00;;;;;;;10.58;76.24;99359.43;105550;1254;73557;-23
2023/10/06 06:06:08;;;;;;;2.70;1.30;;;;;;;10.49;76.76;99366.75;105471;1254;73515;-23
2023/10/06 06:08:37;;;;;;;4.00;1.50;;;;;;;10.74;76.05;99362.04;105687;1257;70544;-24
2023/10/06 06:11:05;;;;;;;2.60;1.30;;;;;;;11.20;74.33;99371.14;105695;1253;61118;-23
2023/10/06 06:13:36;;;;;;;3.30;1.40;;;;;;;11.31;73.42;99367.89;105716;1253;61155;-23
2023/10/06 06:16:05;;;;;;;4.50;1.70;;;;;;;11.21;73.27;99371.43;105656;1260;72665;-24
2023/10/06 06:18:33;;;;;;;3.90;2.20;;;;;;;11.01;74.30;99379.81;105643;1253;74261;-24
2023/10/06 06:21:02;;;;;;;2.50;1.50;;;;;;;10.91;74.47;99378.10;105638;1253;72656;-23
2023/10/06 06:23:33;;;;;;;2.00;1.20;;;;;;;10.76;74.61;99378.26;105672;1253;61820;-23
2023/10/06 06:26:01;;;;;;;2.70;1.30;;;;;;;11.14;73.68;99394.27;105779;1257;61208;-23
2023/10/06 06:28:28;;;;;;;3.90;1.80;;;;;;;11.44;71.62;99389.45;105958;1255;73044;-23
2023/10/06 06:30:55;;;;;;;2.50;1.30;;;;;;;11.26;71.31;99389.33;106005;1251;74286;-24
2023/10/06 06:33:22;;;;;;;1.80;0.90;;;;;;;11.24;71.48;99390.37;105841;1254;73070;-24
2023/10/06 06:35:50;;;;;;;3.10;1.40;;;;;;;11.06;71.76;99401.50;105963;1251;61068;-24
2023/10/06 06:38:18;;;;;;;5.20;1.20;;;;;;;10.98;71.50;99395.46;105923;1251;61122;-23
2023/10/06 06:40:46;;;;;;;3.30;1.20;;;;;;;10.81;71.85;99404.90;105862;1251;73174;-24
2023/10/06 06:43:13;;;;;;;2.70;1.10;;;;;;;10.78;71.26;99402.69;105729;1251;74317;-24
2023/10/06 06:45:39;;;;;;;4.00;1.40;;;;;;;10.89;71.91;99408.17;105951;1251;72449;-23
2023/10/06 06:48:13;;;;;;;1.50;1.00;;;;;;;11.31;70.96;99400.25;105846;1251;61096;-23
2023/10/06 06:50:42;;;;;;;2.10;0.90;;;;;;;11.72;68.89;99405.35;105550;1251;61104;-23
2023/10/06 06:53:12;;;;;;;3.50;1.40;;;;;;;11.59;69.00;99411.55;105631;1258;70885;-22
2023/10/06 06:55:40;;;;;;;4.50;1.10;;;;;;;11.54;69.17;99407.30;105684;1251;74175;-24
2023/10/06 06:58:11;;;;;;;4.50;1.40;;;;;;;11.48;69.59;99414.21;105954;1251;72619;-22
2023/10/06 07:00:41;;;;;;;2.10;1.10;;;;;;;11.55;69.85;99418.70;105873;1254;61048;-22
2023/10/06 07:03:08;;;;;;;2.30;1.20;;;;;;;11.41;68.21;99404.11;105879;1251;61096;-22
2023/10/06 07:05:35;;;;;;;3.50;1.00;;;;;;;11.13;68.71;99418.13;105860;1251;72808;-22
2023/10/06 07:08:04;;;;;;;2.70;1.50;;;;;;;11.21;68.66;99423.45;105814;1257;74728;-22
2023/10/06 07:10:32;;;;;;;3.20;1.20;;;;;;;11.31;68.37;99425.23;105956;1251;71299;-22
2023/10/06 07:12:59;;;;;;;4.80;1.60;;;;;;;11.44;67.93;99432.21;105929;1251;61054;-22
2023/10/06 07:15:29;;;;;;;3.70;1.40;;;;;;;11.35;67.50;99435.05;105903;1251;61167;-22
2023/10/06 07:17:57;;;;;;;4.40;1.70;;;;;;;11.38;68.16;99433.95;105945;1251;72916;-24
2023/10/06 07:20:27;;;;;;;3.70;1.10;;;;;;;11.48;68.09;99428.59;105946;1251;74062;-24
2023/10/06 07:22:55;;;;;;;1.80;0.70;;;;;;;11.80;66.13;99429.42;105753;1254;72652;-22
2023/10/06 07:25:24;;;;;;;2.30;1.00;;;;;;;12.01;64.95;99433.47;105856;1251;61055;-22
2023/10/06 07:27:55;;;;;;;3.00;1.00;;;;;;;12.20;64.55;99427.10;105740;1260;61141;-23
2023/10/06 07:30:23;;;;;;;3.10;1.00;;;;;;;12.01;64.77;99431.18;105701;1251;73562;-24
2023/10/06 07:32:51;;;;;;;1.90;0.90;;;;;;;12.00;64.31;99436.52;105730;1257;74318;-21
2023/10/06 07:35:19;;;;;;;2.00;1.00;;;;;;;11.91;63.54;99436.70;105759;1253;72548;-21
2023/10/06 07:37:48;;;;;;;4.10;1.10;;;;;;;11.86;63.66;99432.23;105756;1260;61699;-21
2023/10/06 07:40:18;;;;;;;1.80;1.20;;;;;;;11.85;64.19;99441.23;105886;1251;61096;-23
2023/10/06 07:42:46;;;;;;;2.10;1.00;;;;;;;11.86;64.41;99433.11;105682;1251;73041;-24
2023/10/06 07:45:13;;;;;;;3.50;1.10;;;;;;;11.90;64.72;99433.30;105707;1251;74705;-24
2023/10/06 07:47:42;;;;;;;3.80;0.90;;;;;;;11.69;63.49;99429.52;105871;1251;72647;-25
2023/10/06 07:50:12;;;;;;;2.40;1.00;;;;;;;11.73;63.41;99439.89;105614;1258;61154;-24
2023/10/06 07:52:44;;;;;;;2.70;0.90;;;;;;;12.01;61.95;99432.09;105584;1259;62686;-23
2023/10/06 07:55:11;;;;;;;4.30;1.10;;;;;;;12.26;61.07;99440.85;105695;1253;74115;-23
2023/10/06 07:57:45;;;;;;;2.30;1.10;;;;;;;12.40;61.07;99447.22;105819;1257;74812;-23
2023/10/06 08:00:18;;;;;;;1.80;0.80;;;;;;;12.41;60.61;99449.21;105756;1254;71105;-24
2023/10/06 08:02:45;;;;;;;1.10;0.70;;;;;;;12.32;60.03;99446.12;105568;1259;61055;-23
2023/10/06 08:05:13;;;;;;;5.80;1.20;;;;;;;12.29;59.87;99455.44;105690;1251;61266;-23
2023/10/06 08:07:42;;;;;;;1.30;0.90;;;;;;;12.07;60.61;99460.29;105706;1251;73674;-23
2023/10/06 08:10:14;;;;;;;3.40;1.20;;;;;;;12.15;61.63;99469.23;105815;1257;74196;-24
2023/10/06 08:12:50;;;;;;;2.20;1.00;;;;;;;12.23;60.72;99462.72;105897;1257;72657;-24
2023/10/06 08:15:17;;;;;;;0.90;0.60;;;;;;;12.38;59.51;99460.92;105720;1251;61222;-23
2023/10/06 08:17:45;;;;;;;3.40;1.10;;;;;;;12.51;59.28;99465.48;105844;1258;61169;-23
2023/10/06 08:20:14;;;;;;;2.20;0.70;;;;;;;12.61;59.01;99470.05;105850;1257;73675;-23
2023/10/06 08:22:46;;;;;;;1.90;0.90;;;;;;;12.68;59.24;99467.35;105942;1251;73267;-23
2023/10/06 08:25:14;;;;;;;3.30;1.50;;;;;;;12.55;57.85;99471.08;105762;1254;72625;-24
2023/10/06 08:27:42;;;;;;;0.90;0.60;;;;;;;12.46;57.95;99478.23;105686;1251;61130;-23
2023/10/06 08:30:16;;;;;;;1.20;0.70;;;;;;;12.55;58.11;99478.56;105774;1257;61183;-23
2023/10/06 08:32:44;;;;;;;1.50;0.80;;;;;;;12.69;57.31;99482.32;105923;1257;73905;-23
2023/10/06 08:35:15;;;;;;;2.90;1.00;;;;;;;12.69;57.24;99477.56;105759;1259;74808;-23
2023/10/06 08:37:43;;;;;;;1.90;0.70;;;;;;;12.94;56.45;99470.23;105629;1257;72586;-24
2023/10/06 08:40:16;;;;;;;1.90;1.20;;;;;;;13.03;54.96;99472.80;105571;1251;61093;-23
2023/10/06 08:42:49;;;;;;;2.50;0.80;;;;;;;12.67;55.92;99486.27;105618;1259;61205;-24
2023/10/06 08:45:21;;;;;;;1.60;0.80;;;;;;;12.68;56.81;99479.16;105981;1255;73574;-23
2023/10/06 08:47:50;;;;;;;1.90;0.90;;;;;;;12.93;55.53;99478.70;105737;1257;74333;-23
2023/10/06 08:50:33;;;;;;;1.00;0.60;;;;;;;13.35;54.21;99486.48;105667;1254;72712;-23
2023/10/06 08:53:04;;;;;;;3.20;0.70;;;;;;;13.47;52.35;99484.42;105713;1256;61043;-23
2023/10/06 08:55:31;;;;;;;1.00;0.80;;;;;;;13.05;52.53;99479.99;105563;1253;61045;-22
2023/10/06 08:57:58;;;;;;;4.20;0.60;;;;;;;12.92;52.96;99487.84;105550;1253;73872;-23
2023/10/06 09:00:32;;;;;;;1.90;0.80;;;;;;;13.06;53.13;99486.86;105782;1255;73238;-22
2023/10/06 09:03:08;;;;;;;1.10;0.70;;;;;;;12.98;53.43;99480.73;105673;1258;71434;-23
2023/10/06 09:05:40;;;;;;;2.20;0.90;;;;;;;13.24;52.92;99484.95;105923;1255;61093;-23
2023/10/06 09:08:09;;;;;;;3.90;1.00;;;;;;;13.68;50.80;99489.94;105761;1257;61151;-23
2023/10/06 09:10:37;;;;;;;2.50;0.90;;;;;;;13.93;50.06;99491.10;105741;1251;73913;-23
2023/10/06 09:13:07;;;;;;;2.90;0.70;;;;;;;14.31;49.14;99493.35;105966;1254;74151;-23
2023/10/06 09:15:37;;;;;;;2.40;0.90;;;;;;;14.63;48.51;99487.97;105716;1251;72691;-23
2023/10/06 09:18:21;;;;;;;3.10;1.00;;;;;;;14.98;47.64;99490.95;105657;1253;61215;-23
2023/10/06 09:20:49;;;;;;;1.70;0.90;;;;;;;14.69;48.81;99494.48;105752;1258;61167;-24
2023/10/06 09:23:36;;;;;;;4.10;0.90;;;;;;;14.88;48.90;99494.38;105753;1251;73902;-24
2023/10/06 09:26:07;;;;;;;3.80;0.70;;;;;;;14.71;49.29;99497.05;105963;1257;74327;-24
2023/10/06 09:28:47;;;;;;;0.80;0.60;;;;;;;14.33;48.51;99497.48;105849;1251;72548;-25
2023/10/06 09:31:15;;;;;;;1.60;0.70;;;;;;;13.87;49.51;99496.34;105677;1251;61138;-26
2023/10/06 09:33:43;;;;;;;3.60;1.00;;;;;;;13.44;49.86;99502.47;105911;1253;61677;-25
2023/10/06 09:36:16;;;;;;;2.40;0.90;;;;;;;13.43;50.12;99501.12;105636;1257;73844;-24
2023/10/06 09:39:00;;;;;;;1.30;1.00;;;;;;;13.84;49.92;99498.01;105524;1251;74319;-24
2023/10/06 09:41:34;;;;;;;1.80;0.70;;;;;;;14.24;49.02;99497.05;105665;1253;72343;-24
2023/10/06 09:44:09;;;;;;;1.20;0.60;;;;;;;14.74;46.43;99494.04;105754;1254;61118;-24
2023/10/06 09:46:38;;;;;;;1.10;0.80;;;;;;;14.96;46.15;99487.42;105772;1257;61117;-24
2023/10/06 09:49:06;;;;;;;0.90;0.60;;;;;;;15.01;45.55;99496.80;105743;1251;73915;-24
2023/10/06 09:51:33;;;;;;;1.30;0.70;;;;;;;15.26;44.29;99495.39;105781;1251;74122;-23
2023/10/06 09:54:02;;;;;;;1.40;0.90;;;;;;;15.47;44.00;99490.09;105818;1252;71730;-24
2023/10/06 09:56:29;;;;;;;1.60;0.70;;;;;;;15.59;44.38;99492.66;105937;1251;61142;-24
2023/10/06 09:58:57;;;;;;;1.00;0.60;;;;;;;15.79;42.73;99487.56;105587;1251;61649;-24
2023/10/06 10:01:25;;;;;;;6.70;0.90;;;;;;;15.59;42.25;99491.52;105623;1251;73884;-24
2023/10/06 10:03:56;;;;;;;3.40;1.10;;;;;;;15.97;42.45;99499.89;105806;1251;74218;-23
2023/10/06 10:06:23;;;;;;;1.60;0.60;;;;;;;16.15;42.64;99489.21;105740;1251;74400;-24
2023/10/06 10:08:54;;;;;;;3.80;0.70;;;;;;;15.99;42.43;99494.60;105847;1251;61134;-24
2023/10/06 10:11:30;;;;;;;0.70;0.50;;;;;;;16.02;42.41;99491.21;105746;1252;61134;-24
2023/10/06 10:14:29;;;;;;;3.50;1.00;;;;;;;16.29;41.75;99488.31;105724;1260;74521;-24
2023/10/06 10:24:37;;;;;;;1.20;0.70;;;;;;;15.86;41.88;99486.51;102663;1298;599491;-22
2023/10/06 10:27:12;;;;;;;1.00;0.50;;;;;;;16.24;41.18;99490.21;104837;1270;61285;-22
2023/10/06 10:29:44;;;;;;;1.20;0.60;;;;;;;16.09;40.31;99482.97;104884;1270;61212;-22
2023/10/06 10:39:52;;;;;;;1.90;0.90;;;;;;;16.26;40.26;99476.56;102647;1293;600299;-22
2023/10/06 10:42:36;;;;;;;0.70;0.60;;;;;;;16.26;39.68;99470.69;105220;1266;61136;-22
2023/10/06 10:45:30;;;;;;;0.70;0.60;;;;;;;16.44;39.06;99466.06;105118;1260;61247;-22
2023/10/06 10:47:59;;;;;;;;;;;;;;;16.04;39.91;99456.65;105161;1261;70723;-23
2023/10/06 10:50:47;;;;;;;3.90;0.70;;;;;;;15.90;39.66;99467.27;105264;1266;74034;-23
2023/10/06 11:01:31;;;;;;;3.50;0.90;;;;;;;16.57;38.88;99451.39;103167;1289;600088;-22
2023/10/06 11:04:21;;;;;;;0.80;0.50;;;;;;;16.28;39.15;99453.45;104876;1268;61097;-22
2023/10/06 11:06:49;;;;;;;1.00;0.60;;;;;;;16.03;39.08;99450.80;104827;1272;62298;-24
2023/10/06 11:09:40;;;;;;;1.40;0.90;;;;;;;16.21;38.27;99458.73;104805;1274;70948;-22
2023/10/06 11:12:17;;;;;;;0.80;0.60;;;;;;;16.30;37.75;99463.73;104847;1272;76467;-22
2023/10/06 11:14:51;;;;;;;1.60;0.70;;;;;;;16.31;38.37;99471.84;102532;1280;3117733;-22
2023/10/06 11:17:24;;;;;;;1.40;0.60;;;;;;;16.31;38.96;99474.37;104758;1273;61295;-22
2023/10/06 11:20:13;;;;;;;2.20;0.70;;;;;;;16.55;38.86;99473.05;104677;1264;61975;-22
2023/10/06 11:22:55;;;;;;;2.50;0.80;;;;;;;16.17;39.05;99468.73;108645;1264;72227;-23
2023/10/06 11:25:29;;;;;;;1.00;0.70;;;;;;;15.91;39.35;99458.80;108649;1264;76609;-23
2023/10/06 11:28:04;;;;;;;1.00;0.60;;;;;;;15.99;39.29;99460.83;108753;1264;72656;-23
2023/10/06 11:30:35;;;;;;;2.10;0.60;;;;;;;16.07;38.65;99463.48;108583;1267;62284;-23
2023/10/06 11:33:11;;;;;;;0.50;0.50;;;;;;;16.13;39.04;99460.19;108677;1264;61000;-23
2023/10/06 11:35:40;;;;;;;1.50;0.80;;;;;;;16.00;39.24;99455.84;108630;1264;72709;-23
2023/10/06 11:38:15;;;;;;;3.50;0.80;;;;;;;16.18;38.81;99466.82;108702;1264;74487;-23
2023/10/06 11:40:44;;;;;;;2.10;0.70;;;;;;;16.06;38.16;99448.72;108641;1264;72684;-23
2023/10/06 11:43:13;;;;;;;1.10;0.60;;;;;;;16.01;38.48;99456.61;108620;1264;58802;-23
2023/10/06 11:45:41;;;;;;;1.20;0.80;;;;;;;16.08;37.87;99453.44;108633;1264;60564;-23
2023/10/06 11:48:25;;;;;;;2.40;0.50;;;;;;;16.10;38.08;99449.20;108672;1264;74963;-22
2023/10/06 11:51:00;;;;;;;2.80;0.90;;;;;;;15.83;38.38;99458.02;108617;1272;73574;-23
2023/10/06 11:53:27;;;;;;;1.40;0.70;;;;;;;15.74;38.85;99462.67;108637;1264;72776;-23
2023/10/06 11:56:07;;;;;;;5.10;0.50;;;;;;;15.74;39.12;99449.92;108612;1264;61652;-23
2023/10/06 11:58:36;;;;;;;1.10;0.60;;;;;;;15.90;38.12;99455.71;108601;1264;61890;-23
2023/10/06 12:01:04;;;;;;;1.60;0.80;;;;;;;15.86;37.95;99461.03;108468;1264;73115;-23
2023/10/06 12:03:39;;;;;;;2.30;0.90;;;;;;;16.07;38.08;99462.25;108770;1264;75607;-23
2023/10/06 12:06:11;;;;;;;1.50;0.70;;;;;;;15.90;38.09;99454.11;108615;1266;74192;-23
2023/10/06 12:08:46;;;;;;;1.10;0.50;;;;;;;15.59;38.85;99457.06;108705;1265;58907;-23
2023/10/06 12:11:14;;;;;;;2.20;0.70;;;;;;;15.64;38.93;99461.55;108568;1267;62225;-23
2023/10/06 12:13:42;;;;;;;1.20;0.60;;;;;;;15.64;38.16;99455.95;108627;1266;71912;-23
2023/10/06 12:16:16;;;;;;;2.60;0.90;;;;;;;15.53;37.89;99447.65;108718;1265;73224;-23
2023/10/06 12:18:44;;;;;;;3.00;0.70;;;;;;;15.52;37.78;99460.76;108525;1266;73570;-22
2023/10/06 12:21:14;;;;;;;2.20;1.10;;;;;;;15.49;37.61;99460.16;108693;1265;60083;-23
2023/10/06 12:23:42;;;;;;;1.50;0.90;;;;;;;15.56;37.87;99455.27;108634;1267;58759;-23
2023/10/06 12:26:10;;;;;;;4.00;0.90;;;;;;;15.56;38.53;99452.98;108694;1266;74028;-23
2023/10/06 12:28:38;;;;;;;2.50;0.90;;;;;;;15.60;38.06;99452.05;108598;1266;74807;-23
2023/10/06 12:31:06;;;;;;;2.00;0.70;;;;;;;15.61;36.83;99440.84;108665;1266;73604;-23
2023/10/06 12:33:34;;;;;;;3.50;0.80;;;;;;;15.61;36.84;99448.65;108599;1265;59071;-23
2023/10/06 12:36:08;;;;;;;3.70;0.70;;;;;;;15.56;36.82;99448.66;108679;1265;62222;-23
2023/10/06 12:38:35;;;;;;;1.00;0.80;;;;;;;15.41;37.21;99449.52;108614;1266;71844;-22
2023/10/06 12:41:07;;;;;;;1.20;0.60;;;;;;;15.57;36.96;99448.17;109083;1257;74377;-23
2023/10/06 12:43:36;;;;;;;1.70;0.80;;;;;;;15.70;37.12;99449.89;109082;1257;71466;-23
2023/10/06 12:46:04;;;;;;;2.60;0.90;;;;;;;15.92;36.69;99440.01;109011;1260;62094;-23
2023/10/06 12:48:32;;;;;;;2.30;0.80;;;;;;;15.79;36.91;99444.48;109044;1257;59129;-23
2023/10/06 12:50:59;;;;;;;1.30;0.70;;;;;;;15.61;36.72;99443.30;109093;1257;72253;-23
2023/10/06 12:53:28;;;;;;;1.00;0.70;;;;;;;15.69;36.50;99443.02;109116;1257;74055;-23
2023/10/06 12:55:58;;;;;;;1.00;0.70;;;;;;;15.64;36.13;99447.17;109085;1257;74860;-23
2023/10/06 12:58:26;;;;;;;3.60;1.40;;;;;;;15.60;36.53;99447.23;108984;1257;60571;-23
2023/10/06 13:00:53;;;;;;;3.80;0.90;;;;;;;15.54;37.15;99443.92;109114;1262;60103;-23
2023/10/06 13:03:21;;;;;;;5.00;0.70;;;;;;;15.65;37.56;99441.29;109104;1257;73372;-23
2023/10/06 13:05:49;;;;;;;1.50;0.80;;;;;;;15.76;37.82;99444.66;109026;1259;72753;-23
2023/10/06 13:08:20;;;;;;;1.80;0.90;;;;;;;15.84;37.79;99433.01;109072;1259;72209;-23
2023/10/06 13:10:49;;;;;;;2.80;1.00;;;;;;;15.68;37.56;99435.23;108937;1259;61599;-23
2023/10/06 13:13:17;;;;;;;1.70;0.80;;;;;;;15.70;38.08;99441.75;108997;1263;60267;-23
2023/10/06 13:15:47;;;;;;;1.50;0.80;;;;;;;15.67;38.21;99439.55;108994;1259;75264;-23
2023/10/06 13:18:18;;;;;;;1.40;0.70;;;;;;;15.61;38.83;99431.23;109086;1258;74343;-23
2023/10/06 13:20:46;;;;;;;2.60;0.90;;;;;;;15.43;39.45;99419.60;108996;1259;70829;-23
2023/10/06 13:23:13;;;;;;;1.50;0.80;;;;;;;15.50;39.48;99435.52;109006;1259;62160;-23
2023/10/06 13:25:41;;;;;;;2.40;0.90;;;;;;;15.55;39.36;99435.01;109087;1259;58825;-23
2023/10/06 13:28:15;;;;;;;2.80;0.80;;;;;;;15.39;39.22;99428.96;108936;1259;75303;-23